createdAt,value
2018-04-30T00:01:07.184Z,50.90
2018-04-30T00:03:34.312Z,51.50
2018-04-30T00:06:00.716Z,51.50
2018-04-30T00:08:27.457Z,51.60
2018-04-30T00:10:53.910Z,51.80
2018-04-30T00:13:21.052Z,51.00
2018-04-30T00:15:47.581Z,52.00
2018-04-30T00:18:15.088Z,52.20
2018-04-30T00:20:42.195Z,53.00
2018-04-30T00:23:08.660Z,52.40
2018-04-30T00:25:35.036Z,52.10
2018-04-30T00:28:01.421Z,52.00
2018-04-30T00:30:27.809Z,52.10
2018-04-30T00:32:54.179Z,51.60
2018-04-30T00:35:20.647Z,51.50
2018-04-30T00:37:47.767Z,50.70
2018-04-30T00:40:16.023Z,50.60
2018-04-30T00:42:42.398Z,50.60
2018-04-30T00:45:09.515Z,50.30
2018-04-30T00:47:35.905Z,50.30
2018-04-30T00:50:02.328Z,51.70
2018-04-30T00:52:28.752Z,50.50
2018-04-30T00:55:01.014Z,50.40
2018-04-30T00:57:28.212Z,50.30
2018-04-30T00:59:54.594Z,50.30
2018-04-30T01:02:21.686Z,50.20
2018-04-30T01:04:48.434Z,50.20
2018-04-30T01:07:14.815Z,49.70
2018-04-30T01:09:42.044Z,49.30
2018-04-30T01:12:08.489Z,49.30
2018-04-30T01:14:37.035Z,49.40
2018-04-30T01:17:03.432Z,48.70
2018-04-30T01:19:29.815Z,48.80
2018-04-30T01:21:56.284Z,48.40
2018-04-30T01:24:23.426Z,48.70
2018-04-30T01:26:50.584Z,48.80
2018-04-30T01:29:17.688Z,48.50
2018-04-30T01:31:44.154Z,48.40
2018-04-30T01:34:11.326Z,48.50
2018-04-30T01:36:39.952Z,48.50
2018-04-30T01:39:07.225Z,48.30
2018-04-30T01:41:34.010Z,47.80
2018-04-30T01:44:00.444Z,46.80
2018-04-30T01:46:26.814Z,46.30
2018-04-30T01:48:53.609Z,45.70
2018-04-30T01:51:20.049Z,45.70
2018-04-30T01:53:46.413Z,44.90
2018-04-30T01:56:12.814Z,44.40
2018-04-30T01:58:39.192Z,44.50
2018-04-30T02:01:05.545Z,44.50
2018-04-30T02:03:32.698Z,44.20
2018-04-30T02:06:00.186Z,43.40
2018-04-30T02:08:26.556Z,43.30
2018-04-30T02:10:53.185Z,43.30
2018-04-30T02:13:19.589Z,42.20
2018-04-30T02:15:45.956Z,43.10
2018-04-30T02:18:13.150Z,42.90
2018-04-30T02:20:40.263Z,43.70
2018-04-30T02:23:07.406Z,43.00
2018-04-30T02:25:33.808Z,42.90
2018-04-30T02:28:00.165Z,43.30
2018-04-30T02:30:26.532Z,42.80
2018-04-30T02:32:54.111Z,43.00
2018-04-30T02:35:21.243Z,42.60
2018-04-30T02:37:48.353Z,42.80
2018-04-30T02:40:14.784Z,43.30
2018-04-30T02:42:41.258Z,43.60
2018-04-30T02:45:07.657Z,44.00
2018-04-30T02:47:34.803Z,44.70
2018-04-30T02:50:01.167Z,44.70
2018-04-30T02:52:27.568Z,44.80
2018-04-30T02:54:54.088Z,45.00
2018-04-30T02:57:20.486Z,45.50
2018-04-30T02:59:46.949Z,46.10
2018-04-30T03:02:13.349Z,45.20
2018-04-30T03:04:40.445Z,46.90
2018-04-30T03:07:06.952Z,46.90
2018-04-30T03:09:33.414Z,45.40
2018-04-30T03:11:59.833Z,46.00
2018-04-30T03:14:26.177Z,45.70
2018-04-30T03:16:52.621Z,45.40
2018-04-30T03:19:18.991Z,45.90
2018-04-30T03:21:46.095Z,45.50
2018-04-30T03:24:12.549Z,45.30
2018-04-30T03:26:38.966Z,45.40
2018-04-30T03:29:05.372Z,46.20
2018-04-30T03:31:32.305Z,45.50
2018-04-30T03:33:58.991Z,45.40
2018-04-30T03:36:25.380Z,46.90
2018-04-30T03:38:51.759Z,46.80
2018-04-30T03:41:18.198Z,47.20
2018-04-30T03:43:44.875Z,47.10
2018-04-30T03:46:11.250Z,47.60
2018-04-30T03:48:37.649Z,47.90
2018-04-30T03:51:04.062Z,48.70
2018-04-30T03:53:31.173Z,50.10
2018-04-30T03:55:57.574Z,50.00
2018-04-30T03:58:23.966Z,51.20
2018-04-30T04:01:09.633Z,52.90
2018-04-30T04:03:55.043Z,52.90
2018-04-30T04:06:39.842Z,53.30
2018-04-30T04:09:06.232Z,53.50
2018-04-30T04:11:33.348Z,55.10
2018-04-30T04:13:59.787Z,55.10
2018-04-30T04:16:26.271Z,55.60
2018-04-30T04:18:52.639Z,56.20
2018-04-30T04:21:19.072Z,56.30
2018-04-30T04:23:45.416Z,55.70
2018-04-30T04:26:11.911Z,55.00
2018-04-30T04:28:38.298Z,55.50
2018-04-30T04:31:05.741Z,53.20
2018-04-30T04:33:32.236Z,53.10
2018-04-30T04:35:58.844Z,55.70
2018-04-30T04:38:25.682Z,54.60
2018-04-30T04:40:52.893Z,54.70
2018-04-30T04:43:19.347Z,54.60
2018-04-30T04:45:47.135Z,55.30
2018-04-30T04:48:13.695Z,55.20
2018-04-30T04:50:40.174Z,56.30
2018-04-30T04:53:07.328Z,53.60
2018-04-30T04:55:34.539Z,54.50
2018-04-30T04:58:00.944Z,54.50
2018-04-30T05:00:27.435Z,56.00
2018-04-30T05:02:55.373Z,53.70
2018-04-30T05:05:21.756Z,53.50
2018-04-30T05:07:48.898Z,53.20
2018-04-30T05:10:16.129Z,52.10
2018-04-30T05:12:42.509Z,52.20
2018-04-30T05:15:08.921Z,51.90
2018-04-30T05:17:36.294Z,51.00
2018-04-30T05:20:02.745Z,51.00
2018-04-30T05:22:29.463Z,50.90
2018-04-30T05:24:55.845Z,51.10
2018-04-30T05:27:23.041Z,48.70
2018-04-30T05:29:50.221Z,50.60
2018-04-30T05:32:16.579Z,50.50
2018-04-30T05:34:42.983Z,50.20
2018-04-30T05:37:09.391Z,50.20
2018-04-30T05:39:36.523Z,50.30
2018-04-30T05:42:03.727Z,51.50
2018-04-30T05:44:30.112Z,51.50
2018-04-30T05:46:57.309Z,51.10
2018-04-30T05:49:23.671Z,51.10
2018-04-30T05:51:50.091Z,51.40
2018-04-30T05:54:16.770Z,51.40
2018-04-30T05:56:43.936Z,51.20
2018-04-30T05:59:10.352Z,51.10
2018-04-30T06:01:37.577Z,51.00
2018-04-30T06:04:05.434Z,49.40
2018-04-30T06:06:31.850Z,49.40
2018-04-30T06:08:58.232Z,49.00
2018-04-30T06:11:25.349Z,49.30
2018-04-30T06:13:52.026Z,49.30
2018-04-30T06:16:19.273Z,46.60
2018-04-30T06:18:46.447Z,47.90
2018-04-30T06:21:12.983Z,47.80
2018-04-30T06:23:39.409Z,48.30
2018-04-30T06:26:05.815Z,46.90
2018-04-30T06:28:33.079Z,46.70
2018-04-30T06:31:00.208Z,46.70
2018-04-30T06:33:27.360Z,46.70
2018-04-30T06:35:54.581Z,46.00
2018-04-30T06:38:21.006Z,46.00
2018-04-30T06:40:47.433Z,44.00
2018-04-30T06:43:13.819Z,44.60
2018-04-30T06:45:41.024Z,44.30
2018-04-30T06:48:07.719Z,44.20
2018-04-30T06:50:34.226Z,43.30
2018-04-30T06:53:00.670Z,43.70
2018-04-30T06:55:27.838Z,44.80
2018-04-30T06:57:55.043Z,45.40
2018-04-30T07:00:21.500Z,45.40
2018-04-30T07:02:48.654Z,44.70
2018-04-30T07:05:16.069Z,44.30
2018-04-30T07:07:42.540Z,45.00
2018-04-30T07:10:09.242Z,44.20
2018-04-30T07:12:35.619Z,43.50
2018-04-30T07:15:02.832Z,42.10
2018-04-30T07:17:29.212Z,42.10
2018-04-30T07:19:56.382Z,42.10
2018-04-30T07:22:22.886Z,42.10
2018-04-30T07:24:50.053Z,41.80
2018-04-30T07:27:16.490Z,40.90
2018-04-30T07:29:42.892Z,41.80
2018-04-30T07:32:10.042Z,40.80
2018-04-30T07:34:36.490Z,40.20
2018-04-30T07:37:02.906Z,40.20
2018-04-30T07:39:29.328Z,39.50
2018-04-30T07:41:55.724Z,39.60
2018-04-30T07:44:22.202Z,39.10
2018-04-30T07:46:48.653Z,38.80
2018-04-30T07:49:15.913Z,37.90
2018-04-30T07:51:43.373Z,38.10
2018-04-30T07:54:10.474Z,37.90
2018-04-30T07:56:36.871Z,37.90
2018-04-30T07:59:03.310Z,37.40
2018-04-30T08:01:29.708Z,37.40
2018-04-30T08:03:56.941Z,37.50
2018-04-30T08:06:23.356Z,37.40
2018-04-30T08:08:49.778Z,36.80
2018-04-30T08:11:16.328Z,37.00
2018-04-30T08:13:42.753Z,37.00
2018-04-30T08:16:09.213Z,35.40
2018-04-30T08:18:36.376Z,35.90
2018-04-30T08:21:03.550Z,36.20
2018-04-30T08:23:29.956Z,36.20
2018-04-30T08:25:57.107Z,35.80
2018-04-30T08:28:24.408Z,36.00
2018-04-30T08:30:50.868Z,36.00
2018-04-30T08:33:17.233Z,35.40
2018-04-30T08:35:44.434Z,35.10
2018-04-30T08:38:10.866Z,33.30
2018-04-30T08:40:37.304Z,35.20
2018-04-30T08:43:03.814Z,35.30
2018-04-30T08:45:30.252Z,34.00
2018-04-30T08:47:56.712Z,33.40
2018-04-30T08:50:23.128Z,31.80
2018-04-30T08:52:49.779Z,31.30
2018-04-30T08:55:16.312Z,31.40
2018-04-30T08:57:44.432Z,30.60
2018-04-30T09:00:10.890Z,30.60
2018-04-30T09:02:37.316Z,30.00
2018-04-30T09:05:04.999Z,29.10
2018-04-30T09:07:31.703Z,29.70
2018-04-30T09:09:59.450Z,30.00
2018-04-30T09:12:26.788Z,28.70
2018-04-30T09:14:53.300Z,28.60
2018-04-30T09:17:20.488Z,28.50
2018-04-30T09:19:47.639Z,29.20
2018-04-30T09:22:14.787Z,28.80
2018-04-30T09:24:42.013Z,28.90
2018-04-30T09:27:08.466Z,28.90
2018-04-30T09:29:34.873Z,28.00
2018-04-30T09:32:01.557Z,28.00
2018-04-30T09:34:29.056Z,27.60
2018-04-30T09:36:55.691Z,27.40
2018-04-30T09:39:22.086Z,27.90
2018-04-30T09:41:48.739Z,27.40
2018-04-30T09:44:15.128Z,27.60
2018-04-30T09:46:41.525Z,28.00
2018-04-30T09:49:08.001Z,28.90
2018-04-30T09:51:34.411Z,28.30
2018-04-30T09:54:00.819Z,27.90
2018-04-30T09:56:27.413Z,27.50
2018-04-30T09:58:54.572Z,27.90
2018-04-30T10:01:21.033Z,27.90
2018-04-30T10:03:47.519Z,27.20
2018-04-30T10:06:14.668Z,27.00
2018-04-30T10:08:41.864Z,27.20
2018-04-30T10:11:08.513Z,27.10
2018-04-30T10:13:35.213Z,26.80
2018-04-30T10:16:01.670Z,25.90
2018-04-30T10:18:28.117Z,25.40
2018-04-30T10:20:54.649Z,25.20
2018-04-30T10:23:23.909Z,25.00
2018-04-30T10:25:51.165Z,25.30
2018-04-30T10:28:19.294Z,25.10
2018-04-30T10:30:45.769Z,25.10
2018-04-30T10:33:12.223Z,24.10
2018-04-30T10:35:38.671Z,24.00
2018-04-30T10:38:05.106Z,23.10
2018-04-30T10:40:31.584Z,23.20
2018-04-30T10:42:57.947Z,23.40
2018-04-30T10:45:24.781Z,23.10
2018-04-30T10:47:52.027Z,22.80
2018-04-30T10:50:19.252Z,23.40
2018-04-30T10:52:46.429Z,23.20
2018-04-30T10:55:13.690Z,23.10
2018-04-30T10:57:41.903Z,23.20
2018-04-30T11:00:08.290Z,23.20
2018-04-30T11:02:35.516Z,22.80
2018-04-30T11:05:01.949Z,22.80
2018-04-30T11:07:28.327Z,23.00
2018-04-30T11:09:54.817Z,22.50
2018-04-30T11:12:21.251Z,21.70
2018-04-30T11:14:47.921Z,22.70
2018-04-30T11:17:14.308Z,22.60
2018-04-30T11:19:41.203Z,21.90
2018-04-30T11:22:07.568Z,22.50
2018-04-30T11:24:34.613Z,21.70
2018-04-30T11:27:01.036Z,22.10
2018-04-30T11:29:27.417Z,22.00
2018-04-30T11:31:53.826Z,21.90
2018-04-30T11:34:20.330Z,21.30
2018-04-30T11:36:46.749Z,21.90
2018-04-30T11:39:13.130Z,21.60
2018-04-30T11:41:39.648Z,22.30
2018-04-30T11:44:06.172Z,22.30
2018-04-30T11:46:32.602Z,22.00
2018-04-30T11:48:59.210Z,21.80
2018-04-30T11:51:25.609Z,21.60
2018-04-30T11:53:52.779Z,22.70
2018-04-30T11:56:19.433Z,22.30
2018-04-30T11:58:45.903Z,22.40
2018-04-30T12:01:13.948Z,21.70
2018-04-30T12:03:40.385Z,21.70
2018-04-30T12:06:07.142Z,21.40
2018-04-30T12:08:33.565Z,22.00
2018-04-30T12:10:59.999Z,21.30
2018-04-30T12:13:27.075Z,20.40
2018-04-30T12:15:53.588Z,20.30
2018-04-30T12:18:20.027Z,21.30
2018-04-30T12:20:48.168Z,21.20
2018-04-30T12:23:14.572Z,21.10
2018-04-30T12:25:41.717Z,20.80
2018-04-30T12:28:08.943Z,20.60
2018-04-30T12:30:35.761Z,20.60
2018-04-30T12:33:02.232Z,20.60
2018-04-30T12:35:28.654Z,20.70
2018-04-30T12:37:55.048Z,20.40
2018-04-30T12:40:21.476Z,19.90
2018-04-30T12:42:47.911Z,20.10
2018-04-30T12:45:14.312Z,20.30
2018-04-30T12:47:41.461Z,20.30
2018-04-30T12:50:08.670Z,20.80
2018-04-30T12:52:35.022Z,20.80
2018-04-30T12:55:01.502Z,20.40
2018-04-30T12:57:27.897Z,19.40
2018-04-30T12:59:54.277Z,20.10
2018-04-30T13:02:20.675Z,20.00
2018-04-30T13:04:47.936Z,19.70
2018-04-30T13:07:14.347Z,19.70
2018-04-30T13:09:41.091Z,19.80
2018-04-30T13:12:08.202Z,20.50
2018-04-30T13:14:34.831Z,20.30
2018-04-30T13:17:01.200Z,20.30
2018-04-30T13:19:27.879Z,20.60
2018-04-30T13:21:54.263Z,21.00
2018-04-30T13:24:20.689Z,21.10
2018-04-30T13:26:47.379Z,20.50
2018-04-30T13:29:14.503Z,20.20
2018-04-30T13:31:41.745Z,20.60
2018-04-30T13:34:08.949Z,20.20
2018-04-30T13:36:35.478Z,20.20
2018-04-30T13:39:03.548Z,20.40
2018-04-30T13:41:29.989Z,20.10
2018-04-30T13:43:57.409Z,19.90
2018-04-30T13:46:24.175Z,19.40
2018-04-30T13:48:50.559Z,18.60
2018-04-30T13:51:17.898Z,18.00
2018-04-30T13:53:44.721Z,18.50
2018-04-30T13:56:11.335Z,18.70
2018-04-30T13:58:38.018Z,19.10
2018-04-30T14:01:05.267Z,19.60
2018-04-30T14:03:31.937Z,19.60
2018-04-30T14:06:01.609Z,19.70
2018-04-30T14:08:29.738Z,19.10
2018-04-30T14:10:57.253Z,18.80
2018-04-30T14:13:24.537Z,18.80
2018-04-30T14:15:51.142Z,19.30
2018-04-30T14:18:17.476Z,19.20
2018-04-30T14:20:43.847Z,19.00
2018-04-30T14:23:11.035Z,17.60
2018-04-30T14:25:37.405Z,17.50
2018-04-30T14:28:03.845Z,18.20
2018-04-30T14:30:30.461Z,18.10
2018-04-30T14:32:56.838Z,17.40
2018-04-30T14:35:24.031Z,17.60
2018-04-30T14:37:50.494Z,17.60
2018-04-30T14:40:17.777Z,18.80
2018-04-30T14:42:44.215Z,17.70
2018-04-30T14:45:10.600Z,19.20
2018-04-30T14:47:37.067Z,19.20
2018-04-30T14:50:04.207Z,21.10
2018-04-30T14:52:31.520Z,21.10
2018-04-30T14:54:57.975Z,20.90
2018-04-30T14:57:24.484Z,21.80
2018-04-30T14:59:50.974Z,21.50
2018-04-30T15:02:18.130Z,20.90
2018-04-30T15:04:44.818Z,19.90
2018-04-30T15:07:11.237Z,20.40
2018-04-30T15:09:37.761Z,21.00
2018-04-30T15:12:04.215Z,21.30
2018-04-30T15:14:30.664Z,21.30
2018-04-30T15:16:57.112Z,21.90
2018-04-30T15:19:23.527Z,21.00
2018-04-30T15:21:49.931Z,20.80
2018-04-30T15:24:16.717Z,21.00
2018-04-30T15:26:43.165Z,20.90
2018-04-30T15:29:10.367Z,22.00
2018-04-30T15:31:36.754Z,22.00
2018-04-30T15:34:03.885Z,20.90
2018-04-30T15:36:30.990Z,20.10
2018-04-30T15:38:57.393Z,20.00
2018-04-30T15:41:23.935Z,19.80
2018-04-30T15:43:50.383Z,20.00
2018-04-30T15:46:16.763Z,20.70
2018-04-30T15:48:43.297Z,21.00
2018-04-30T15:51:09.716Z,21.90
2018-04-30T15:53:36.177Z,21.90
2018-04-30T15:56:03.394Z,22.40
2018-04-30T15:58:30.355Z,22.40
2018-04-30T16:00:57.551Z,22.60
2018-04-30T16:03:23.990Z,22.60
2018-04-30T16:05:50.433Z,22.70
2018-04-30T16:08:16.831Z,22.50
2018-04-30T16:10:43.961Z,23.00
2018-04-30T16:13:11.204Z,22.10
2018-04-30T16:15:37.630Z,22.10
2018-04-30T16:18:04.507Z,20.20
2018-04-30T16:20:31.866Z,19.40
2018-04-30T16:22:59.053Z,19.90
2018-04-30T16:25:25.510Z,20.30
2018-04-30T16:27:51.925Z,21.00
2018-04-30T16:30:18.415Z,21.30
2018-04-30T16:32:45.570Z,23.00
2018-04-30T16:35:12.816Z,24.30
2018-04-30T16:37:39.964Z,24.90
2018-04-30T16:40:07.249Z,25.60
2018-04-30T16:42:33.961Z,25.60
2018-04-30T16:45:01.171Z,26.60
2018-04-30T16:47:27.538Z,26.70
2018-04-30T16:49:54.779Z,28.00
2018-04-30T16:52:21.267Z,28.00
2018-04-30T16:54:47.638Z,28.20
2018-04-30T16:57:14.861Z,29.10
2018-04-30T16:59:41.361Z,29.10
2018-04-30T17:02:07.751Z,29.60
2018-04-30T17:04:35.393Z,29.20
2018-04-30T17:07:01.859Z,29.40
2018-04-30T17:09:28.390Z,29.10
2018-04-30T17:11:55.530Z,29.80
2018-04-30T17:14:21.966Z,29.80
2018-04-30T17:16:48.376Z,30.00
2018-04-30T17:19:14.909Z,30.40
2018-04-30T17:21:41.340Z,30.20
2018-04-30T17:24:07.853Z,29.50
2018-04-30T17:26:34.339Z,28.50
2018-04-30T17:29:01.009Z,28.10
2018-04-30T17:31:27.819Z,28.10
2018-04-30T17:33:54.252Z,26.90
2018-04-30T17:36:20.768Z,27.00
2018-04-30T17:38:47.125Z,27.00
2018-04-30T17:41:14.446Z,27.50
2018-04-30T17:43:40.871Z,27.40
2018-04-30T17:46:07.237Z,28.10
2018-04-30T17:48:34.492Z,29.90
2018-04-30T17:51:00.931Z,29.90
2018-04-30T17:53:28.213Z,31.10
2018-04-30T17:55:54.565Z,31.10
2018-04-30T17:58:20.979Z,31.60
2018-04-30T18:00:47.414Z,32.00
2018-04-30T18:03:14.541Z,32.20
2018-04-30T18:05:41.001Z,32.30
2018-04-30T18:08:08.206Z,32.50
2018-04-30T18:10:35.398Z,32.80
2018-04-30T18:13:01.786Z,32.60
2018-04-30T18:15:28.990Z,33.80
2018-04-30T18:17:55.473Z,32.90
2018-04-30T18:20:22.699Z,34.00
2018-04-30T18:22:49.213Z,33.90
2018-04-30T18:25:15.825Z,34.50
2018-04-30T18:27:42.346Z,35.00
2018-04-30T18:30:09.514Z,34.80
2018-04-30T18:32:35.929Z,34.80
2018-04-30T18:35:03.270Z,34.30
2018-04-30T18:37:30.685Z,34.40
2018-04-30T18:39:57.076Z,34.30
2018-04-30T18:42:23.501Z,34.40
2018-04-30T18:44:49.974Z,34.70
2018-04-30T18:47:16.571Z,32.60
2018-04-30T18:49:43.724Z,34.80
2018-04-30T18:52:11.087Z,34.90
2018-04-30T18:54:37.742Z,34.80
2018-04-30T18:57:04.327Z,35.00
2018-04-30T18:59:31.657Z,35.90
2018-04-30T19:01:58.139Z,35.20
2018-04-30T19:04:25.887Z,35.40
2018-04-30T19:06:53.981Z,35.80
2018-04-30T19:09:20.523Z,35.80
2018-04-30T19:11:46.926Z,35.80
2018-04-30T19:14:14.247Z,36.40
2018-04-30T19:16:40.738Z,36.40
2018-04-30T19:19:07.222Z,37.00
2018-04-30T19:21:33.856Z,36.40
2018-04-30T19:24:00.288Z,36.40
2018-04-30T19:26:27.079Z,36.30
2018-04-30T19:28:53.496Z,36.70
2018-04-30T19:31:20.913Z,36.50
2018-04-30T19:33:47.297Z,36.40
2018-04-30T19:36:13.745Z,36.80
2018-04-30T19:38:40.276Z,32.60
2018-04-30T19:41:06.913Z,32.00
2018-04-30T19:43:33.268Z,32.60
2018-04-30T19:45:59.878Z,31.80
2018-04-30T19:48:27.011Z,31.10
2018-04-30T19:50:54.182Z,31.10
2018-04-30T19:53:20.612Z,31.10
2018-04-30T19:55:47.048Z,30.20
2018-04-30T19:58:14.409Z,29.80
2018-04-30T20:00:40.885Z,30.00
2018-04-30T20:03:07.716Z,30.20
2018-04-30T20:05:34.362Z,29.70
2018-04-30T20:08:00.993Z,29.90
2018-04-30T20:10:27.436Z,29.90
2018-04-30T20:12:53.855Z,29.60
2018-04-30T20:15:20.709Z,29.80
2018-04-30T20:17:47.462Z,29.90
2018-04-30T20:20:15.511Z,30.10
2018-04-30T20:22:42.039Z,30.10
2018-04-30T20:25:08.505Z,30.50
2018-04-30T20:27:35.162Z,30.20
2018-04-30T20:30:02.306Z,30.70
2018-04-30T20:32:28.726Z,30.40
2018-04-30T20:34:55.388Z,30.70
2018-04-30T20:37:22.515Z,30.70
2018-04-30T20:39:48.970Z,30.70
2018-04-30T20:42:16.367Z,31.10
2018-04-30T20:44:42.847Z,31.10
2018-04-30T20:47:10.001Z,31.50
2018-04-30T20:49:38.188Z,31.20
2018-04-30T20:52:05.374Z,31.30
2018-04-30T20:54:31.927Z,31.30
2018-04-30T20:56:58.537Z,32.30
2018-04-30T20:59:24.976Z,31.60
2018-04-30T21:01:51.690Z,31.60
2018-04-30T21:04:19.014Z,31.90
2018-04-30T21:06:46.234Z,31.90
2018-04-30T21:09:13.783Z,31.90
2018-04-30T21:11:40.234Z,32.30
2018-04-30T21:14:07.324Z,32.30
2018-04-30T21:16:34.550Z,32.60
2018-04-30T21:19:02.118Z,32.60
2018-04-30T21:21:30.364Z,32.40
2018-04-30T21:23:56.720Z,32.60
2018-04-30T21:26:23.088Z,32.90
2018-04-30T21:28:50.565Z,33.70
2018-04-30T21:31:17.028Z,33.60
2018-04-30T21:33:43.477Z,33.80
2018-04-30T21:36:10.758Z,34.00
2018-04-30T21:38:38.285Z,34.40
2018-04-30T21:41:05.350Z,34.40
2018-04-30T21:43:33.491Z,34.50
2018-04-30T21:45:59.935Z,34.70
2018-04-30T21:48:27.744Z,34.70
2018-04-30T21:50:56.050Z,35.00
2018-04-30T21:53:24.163Z,35.20
2018-04-30T21:55:52.081Z,35.40
2018-04-30T21:58:20.120Z,35.40
2018-04-30T22:00:48.416Z,35.80
2018-04-30T22:03:14.871Z,35.80
2018-04-30T22:05:41.244Z,35.80
2018-04-30T22:08:08.431Z,36.30
2018-04-30T22:10:34.831Z,35.70
2018-04-30T22:13:01.978Z,35.60
2018-04-30T22:15:29.460Z,35.70
2018-04-30T22:17:55.857Z,35.70
2018-04-30T22:20:22.265Z,35.50
2018-04-30T22:22:48.643Z,35.60
2018-04-30T22:25:15.826Z,36.10
2018-04-30T22:27:42.618Z,36.10
2018-04-30T22:30:09.006Z,36.00
2018-04-30T22:32:35.613Z,36.30
2018-04-30T22:35:02.717Z,36.40
2018-04-30T22:37:29.134Z,36.20
2018-04-30T22:39:55.537Z,36.40
2018-04-30T22:42:21.937Z,36.40
2018-04-30T22:44:48.596Z,36.40
2018-04-30T22:47:15.001Z,36.60
2018-04-30T22:49:42.186Z,37.00
2018-04-30T22:52:08.541Z,37.00
2018-04-30T22:54:34.945Z,37.00
2018-04-30T22:57:05.059Z,37.50
2018-04-30T22:59:32.182Z,38.10
2018-04-30T23:01:58.629Z,37.40
2018-04-30T23:04:25.766Z,37.70
2018-04-30T23:06:52.214Z,37.70
2018-04-30T23:09:19.413Z,37.70
2018-04-30T23:11:45.833Z,37.50
2018-04-30T23:14:12.556Z,37.80
2018-04-30T23:16:39.439Z,37.70
2018-04-30T23:19:05.841Z,37.80
2018-04-30T23:21:32.318Z,37.90
2018-04-30T23:23:58.696Z,37.90
2018-04-30T23:26:25.162Z,37.90
2018-04-30T23:28:51.610Z,37.90
2018-04-30T23:31:18.017Z,38.10
2018-04-30T23:33:44.421Z,38.10
2018-04-30T23:36:11.524Z,38.60
2018-04-30T23:38:37.891Z,38.60
2018-04-30T23:41:05.120Z,38.70
2018-04-30T23:43:31.894Z,38.70
2018-04-30T23:45:59.014Z,38.90
2018-04-30T23:48:25.424Z,39.50
2018-04-30T23:50:51.848Z,38.70
2018-04-30T23:53:18.233Z,39.00
2018-04-30T23:55:45.373Z,39.20
2018-04-30T23:58:11.865Z,39.20
